Time;durP1;ratioP1;P1;durP2;ratioP2;P2;SDS_P1;SDS_P2;PMS_P1;PMS_P2;Temp;Humidity;BMP_temperature;BMP_pressure;BME280_temperature;BME280_humidity;BME280_pressure;Samples;Min_cycle;Max_cycle;Signal;HPM_P1;HPM_P2
2022/07/25 00:00:58;;;;;;;14.75;7.82;;;;;;;20.68;83.27;96173.63;5036492;28;20433;-71
2022/07/25 00:03:24;;;;;;;13.38;7.65;;;;;;;20.52;83.49;96177.06;5035280;28;20220;-72
2022/07/25 00:05:51;;;;;;;11.43;7.30;;;;;;;20.55;83.51;96177.41;5036567;28;20220;-70
2022/07/25 00:08:18;;;;;;;13.48;7.75;;;;;;;20.57;83.17;96169.13;5035906;28;20586;-70
2022/07/25 00:10:45;;;;;;;12.98;7.78;;;;;;;20.60;83.13;96171.34;5036583;28;20263;-73
2022/07/25 00:13:11;;;;;;;15.65;7.60;;;;;;;20.56;82.89;96164.84;5035084;28;20955;-72
2022/07/25 00:15:38;;;;;;;16.42;8.95;;;;;;;20.56;82.81;96162.19;5036183;28;20205;-72
2022/07/25 00:18:06;;;;;;;13.52;7.80;;;;;;;20.50;83.24;96157.78;5036145;28;20221;-72
2022/07/25 00:20:32;;;;;;;14.32;7.63;;;;;;;20.42;82.97;96163.53;5035489;28;20213;-71
2022/07/25 00:22:59;;;;;;;12.70;8.00;;;;;;;20.46;82.86;96159.31;5035419;28;20229;-73
2022/07/25 00:25:25;;;;;;;14.68;8.30;;;;;;;20.42;82.56;96158.97;5037037;28;20217;-74
2022/07/25 00:27:52;;;;;;;16.23;7.63;;;;;;;20.29;83.20;96161.13;5037042;28;20231;-73
2022/07/25 00:30:18;;;;;;;15.35;8.25;;;;;;;20.38;82.78;96160.50;5039397;28;20201;-72
2022/07/25 00:32:45;;;;;;;13.65;7.88;;;;;;;20.25;83.61;96154.59;5039510;28;20225;-72
2022/07/25 00:35:13;;;;;;;13.20;7.60;;;;;;;20.35;83.95;96157.47;5038929;28;20685;-73
2022/07/25 00:37:39;;;;;;;14.07;7.40;;;;;;;20.33;83.57;96146.22;5039404;28;20204;-73
2022/07/25 00:40:07;;;;;;;13.00;7.90;;;;;;;20.18;84.67;96155.81;5039443;28;20732;-73
2022/07/25 00:42:33;;;;;;;14.75;7.72;;;;;;;20.30;83.19;96141.31;5038410;28;20229;-73
2022/07/25 00:45:00;;;;;;;14.55;7.88;;;;;;;20.04;84.99;96133.84;5039351;28;20209;-73
2022/07/25 00:47:26;;;;;;;16.73;8.07;;;;;;;20.10;84.39;96132.91;5039392;28;20564;-73
2022/07/25 00:49:53;;;;;;;16.58;8.05;;;;;;;20.07;85.80;96138.72;5038858;28;20692;-72
2022/07/25 00:52:22;;;;;;;17.83;7.75;;;;;;;20.15;85.71;96132.19;5038027;28;20718;-71
2022/07/25 00:54:49;;;;;;;14.27;8.00;;;;;;;20.04;85.25;96133.06;5039571;28;20274;-72
2022/07/25 00:57:15;;;;;;;13.57;7.35;;;;;;;20.01;85.83;96129.00;5038857;28;20224;-73
2022/07/25 00:59:42;;;;;;;12.68;7.68;;;;;;;20.05;85.39;96140.84;5038497;28;20209;-72
2022/07/25 01:02:08;;;;;;;13.23;7.50;;;;;;;19.99;85.79;96125.72;5038791;28;20827;-73
2022/07/25 01:04:35;;;;;;;15.35;7.63;;;;;;;20.01;85.64;96133.50;5037830;28;20665;-73
2022/07/25 01:07:02;;;;;;;13.98;7.63;;;;;;;20.01;85.19;96131.66;5038416;28;20236;-72
2022/07/25 01:09:30;;;;;;;13.70;7.45;;;;;;;20.07;85.51;96132.56;5038947;28;20212;-73
2022/07/25 01:11:57;;;;;;;16.58;7.53;;;;;;;19.94;86.38;96136.31;5038833;28;20225;-73
2022/07/25 01:14:23;;;;;;;14.18;7.72;;;;;;;19.86;87.08;96128.66;5038128;28;20197;-72
2022/07/25 01:16:50;;;;;;;18.92;8.15;;;;;;;19.90;87.10;96137.81;5039204;28;20209;-72
2022/07/25 01:19:16;;;;;;;13.00;7.43;;;;;;;19.76;87.90;96141.00;5038363;28;20201;-73
2022/07/25 01:21:44;;;;;;;13.25;7.88;;;;;;;19.79;88.39;96130.66;5038067;28;20241;-72
2022/07/25 01:24:11;;;;;;;15.95;8.13;;;;;;;19.72;88.81;96129.97;5038225;28;20229;-72
2022/07/25 01:26:38;;;;;;;14.68;7.95;;;;;;;19.72;90.40;96129.97;5038548;28;20587;-72
2022/07/25 01:29:05;;;;;;;13.65;8.38;;;;;;;19.73;89.64;96125.44;5036438;28;20231;-72
2022/07/25 01:31:31;;;;;;;17.35;8.35;;;;;;;19.60;89.44;96131.00;5038175;28;20221;-73
2022/07/25 01:33:58;;;;;;;16.15;7.95;;;;;;;19.59;88.17;96124.06;5037611;28;20212;-72
2022/07/25 01:36:24;;;;;;;14.63;8.10;;;;;;;19.58;88.13;96128.59;5038794;28;20204;-73
2022/07/25 01:38:52;;;;;;;16.75;8.15;;;;;;;19.65;88.31;96139.16;5037331;28;20213;-72
2022/07/25 01:41:19;;;;;;;13.73;8.25;;;;;;;19.49;88.67;96139.88;5038289;28;20240;-73
2022/07/25 01:43:45;;;;;;;12.80;8.32;;;;;;;19.49;89.33;96133.69;5037833;28;20202;-72
2022/07/25 01:46:12;;;;;;;20.13;8.40;;;;;;;19.46;88.80;96128.84;5038160;28;20216;-73
2022/07/25 01:48:39;;;;;;;12.80;7.93;;;;;;;19.39;88.42;96125.47;5037596;28;20225;-72
2022/07/25 01:51:07;;;;;;;15.52;8.30;;;;;;;19.44;88.03;96130.94;5038031;28;20229;-73
2022/07/25 01:53:33;;;;;;;13.73;8.20;;;;;;;19.30;89.86;96135.72;5037041;28;20215;-72
2022/07/25 01:56:01;;;;;;;13.02;8.05;;;;;;;19.44;88.76;96130.94;5037779;28;20205;-72
2022/07/25 01:58:27;;;;;;;15.43;7.68;;;;;;;19.42;88.61;96117.78;5037923;28;20197;-73
2022/07/25 02:00:54;;;;;;;14.48;7.95;;;;;;;19.46;87.11;96123.50;5037559;28;20212;-72
2022/07/25 02:03:29;;;;;;;15.07;8.25;;;;;;;19.30;89.69;96127.69;5037317;28;20296;-73
2022/07/25 02:05:56;;;;;;;13.88;8.25;;;;;;;19.42;89.28;96117.00;5037451;28;20201;-73
2022/07/25 02:08:23;;;;;;;18.20;8.90;;;;;;;19.38;89.22;96123.84;5037413;28;20221;-73
2022/07/25 02:10:49;;;;;;;13.68;8.00;;;;;;;19.38;86.86;96118.50;5037323;28;20275;-73
2022/07/25 02:13:17;;;;;;;13.73;7.38;;;;;;;19.35;87.33;96117.13;5036643;28;20206;-72
2022/07/25 02:15:44;;;;;;;16.90;8.70;;;;;;;19.18;92.07;96115.38;5037906;28;20209;-72
2022/07/25 02:18:10;;;;;;;18.13;8.52;;;;;;;19.27;90.29;96100.63;5037615;28;20204;-72
2022/07/25 02:20:37;;;;;;;20.02;8.57;;;;;;;19.41;89.35;96102.00;5037157;28;20220;-72
2022/07/25 02:23:04;;;;;;;14.80;8.02;;;;;;;19.39;88.95;96104.09;5034536;28;20228;-71
2022/07/25 02:25:30;;;;;;;15.02;7.30;;;;;;;19.33;88.13;96099.69;5036811;28;20201;-73
2022/07/25 02:27:57;;;;;;;16.75;8.13;;;;;;;19.17;89.24;96097.72;5035291;28;20235;-72
2022/07/25 02:30:25;;;;;;;15.27;7.85;;;;;;;19.30;89.07;96092.94;5037360;28;20204;-72
2022/07/25 02:32:52;;;;;;;13.57;8.18;;;;;;;19.14;89.21;96098.19;5036746;28;20614;-73
2022/07/25 02:35:18;;;;;;;14.43;8.27;;;;;;;19.15;89.62;96102.50;5036676;28;20201;-73
2022/07/25 02:37:45;;;;;;;14.07;7.90;;;;;;;19.07;90.78;96092.16;5037372;28;20553;-73
2022/07/25 02:40:12;;;;;;;15.13;8.13;;;;;;;19.00;92.85;96086.06;5037240;28;20220;-73
2022/07/25 02:42:39;;;;;;;18.08;8.95;;;;;;;19.05;92.82;96091.53;5036015;28;20231;-73
2022/07/25 02:45:06;;;;;;;14.30;8.43;;;;;;;19.13;91.87;96088.53;5036962;28;20568;-72
2022/07/25 02:47:34;;;;;;;13.95;7.85;;;;;;;19.00;90.42;96089.56;5038000;28;20208;-73
2022/07/25 02:50:01;;;;;;;17.92;8.32;;;;;;;18.90;90.00;96088.50;5036117;28;20201;-73
2022/07/25 02:52:28;;;;;;;13.63;7.82;;;;;;;18.92;91.23;96083.75;5035994;28;20229;-73
2022/07/25 02:54:54;;;;;;;16.10;7.80;;;;;;;18.98;91.59;96088.97;5037257;28;20209;-73
2022/07/25 02:57:21;;;;;;;12.10;7.60;;;;;;;19.02;90.44;96075.97;5037013;28;20237;-73
2022/07/25 02:59:47;;;;;;;13.48;8.18;;;;;;;18.80;93.03;96082.94;5036689;28;20211;-73
2022/07/25 03:02:14;;;;;;;14.93;8.57;;;;;;;18.77;94.81;96086.06;5036558;28;20225;-73
2022/07/25 03:04:42;;;;;;;15.18;8.95;;;;;;;18.99;94.35;96084.44;5035943;28;20205;-73
2022/07/25 03:07:08;;;;;;;12.90;7.50;;;;;;;19.07;92.15;96092.16;5036556;28;20229;-73
2022/07/25 03:09:35;;;;;;;12.73;8.07;;;;;;;19.03;90.93;96085.63;5036737;28;20227;-72
2022/07/25 03:12:01;;;;;;;13.70;7.97;;;;;;;18.98;90.55;96078.31;5036655;28;20605;-73
2022/07/25 03:14:28;;;;;;;15.60;8.48;;;;;;;19.05;89.89;96078.19;5035865;28;20201;-73
2022/07/25 03:16:54;;;;;;;15.63;9.23;;;;;;;18.94;91.37;96087.03;5036635;28;20216;-73
2022/07/25 03:19:21;;;;;;;15.48;8.75;;;;;;;19.06;91.68;96079.84;5036512;28;20193;-73
2022/07/25 03:21:49;;;;;;;15.48;7.80;;;;;;;19.14;90.45;96076.81;5036042;28;20616;-73
2022/07/25 03:24:17;;;;;;;16.35;7.63;;;;;;;18.91;90.49;96075.97;5035926;28;20223;-73
2022/07/25 03:26:44;;;;;;;17.48;8.63;;;;;;;18.92;89.90;96067.72;5035639;28;20209;-73
2022/07/25 03:29:11;;;;;;;15.43;8.35;;;;;;;18.98;89.86;96066.81;5035816;28;20776;-72
2022/07/25 03:31:38;;;;;;;17.98;9.35;;;;;;;18.77;90.09;96075.38;5036540;28;20221;-73
2022/07/25 03:34:05;;;;;;;14.52;9.27;;;;;;;18.74;93.14;96070.50;5036062;28;20560;-73
2022/07/25 03:36:31;;;;;;;14.82;8.52;;;;;;;18.84;92.69;96070.75;5036304;28;20205;-73
2022/07/25 03:38:59;;;;;;;15.18;8.90;;;;;;;18.95;91.44;96070.75;5036748;28;20207;-73
2022/07/25 03:41:26;;;;;;;15.63;8.05;;;;;;;18.82;89.82;96078.16;5036163;28;20221;-73
2022/07/25 03:43:52;;;;;;;15.57;8.27;;;;;;;18.75;90.77;96072.16;5035529;28;20296;-73
2022/07/25 03:46:19;;;;;;;15.45;8.60;;;;;;;18.70;92.76;96072.03;5035903;28;20204;-73
2022/07/25 03:48:45;;;;;;;18.30;9.18;;;;;;;18.76;93.04;96073.78;5036512;28;20229;-73
2022/07/25 03:51:12;;;;;;;14.43;9.10;;;;;;;18.73;92.94;96068.88;5036075;28;20225;-73
2022/07/25 03:56:20;;;;;;;14.73;8.85;;;;;;;18.66;93.65;96068.19;5035960;28;20201;-73
2022/07/25 03:58:47;;;;;;;17.60;8.57;;;;;;;18.54;91.59;96053.19;5036847;28;20589;-73
2022/07/25 04:01:13;;;;;;;19.98;8.57;;;;;;;18.42;93.71;96058.50;5036981;28;20234;-73
2022/07/25 04:03:40;;;;;;;15.05;8.80;;;;;;;18.71;92.20;96060.31;5039135;28;20205;-73
2022/07/25 04:06:06;;;;;;;18.10;8.70;;;;;;;18.59;91.25;96050.66;5040621;28;20201;-73
2022/07/25 04:08:33;;;;;;;19.45;10.15;;;;;;;18.55;94.15;96047.63;5039584;28;20771;-72
2022/07/25 04:10:59;;;;;;;16.35;8.90;;;;;;;18.67;92.49;96045.81;5039421;28;20209;-73
2022/07/25 04:13:27;;;;;;;14.60;8.10;;;;;;;18.81;91.34;96046.38;5039551;28;20204;-73
2022/07/25 04:15:54;;;;;;;15.90;8.57;;;;;;;18.57;90.94;96042.88;5039841;28;20251;-73
2022/07/25 04:18:20;;;;;;;17.48;8.38;;;;;;;18.62;91.56;96043.00;5039129;28;20657;-73
2022/07/25 04:20:47;;;;;;;16.88;8.98;;;;;;;18.62;92.50;96040.34;5039631;28;20213;-72
2022/07/25 04:23:14;;;;;;;23.75;9.77;;;;;;;18.63;93.31;96041.94;5038933;28;21538;-73
2022/07/25 04:25:40;;;;;;;16.67;9.98;;;;;;;18.67;94.52;96051.13;5039536;28;20300;-73
2022/07/25 04:28:08;;;;;;;17.83;9.45;;;;;;;18.80;94.41;96036.72;5037479;28;20225;-73
2022/07/25 04:30:36;;;;;;;18.63;9.50;;;;;;;18.94;94.59;96050.44;5039432;28;20536;-73
2022/07/25 04:33:03;;;;;;;15.18;9.23;;;;;;;18.90;93.99;96047.66;5038254;28;20969;-73
2022/07/25 04:35:29;;;;;;;17.58;8.68;;;;;;;18.89;93.68;96046.84;5039697;28;20205;-73
2022/07/25 04:37:55;;;;;;;16.65;9.00;;;;;;;19.03;93.01;96038.34;5039390;28;20205;-73
2022/07/25 04:40:22;;;;;;;19.55;9.43;;;;;;;19.07;93.32;96044.09;5039327;28;20209;-73
2022/07/25 04:42:48;;;;;;;15.93;9.02;;;;;;;19.09;93.51;96042.81;5038466;28;20228;-73
2022/07/25 04:45:15;;;;;;;16.60;9.48;;;;;;;19.12;93.84;96036.19;5039199;28;20224;-73
2022/07/25 04:47:43;;;;;;;17.67;9.50;;;;;;;19.33;94.06;96035.56;5037645;28;20205;-73
2022/07/25 04:50:10;;;;;;;18.20;9.90;;;;;;;19.43;93.97;96036.56;5038978;28;20723;-72
2022/07/25 04:52:36;;;;;;;22.50;10.07;;;;;;;19.46;93.86;96033.41;5038313;28;20230;-72
2022/07/25 04:55:03;;;;;;;18.35;10.05;;;;;;;19.56;93.14;96027.47;5038760;28;20212;-73
2022/07/25 04:57:30;;;;;;;19.85;10.32;;;;;;;19.67;93.80;96030.13;5039622;28;20201;-72
2022/07/25 04:59:57;;;;;;;17.92;10.52;;;;;;;19.63;93.64;96027.09;5039200;28;20210;-72
2022/07/25 05:02:24;;;;;;;18.02;9.73;;;;;;;19.42;95.20;96031.47;5037844;28;20235;-73
2022/07/25 05:04:52;;;;;;;18.98;10.13;;;;;;;19.72;94.68;96025.69;5038958;28;20208;-72
2022/07/25 05:07:19;;;;;;;20.15;10.05;;;;;;;19.82;94.09;96030.44;5039419;28;20577;-72
2022/07/25 05:09:45;;;;;;;18.88;9.93;;;;;;;19.93;94.25;96037.59;5038517;28;20236;-72
2022/07/25 05:12:12;;;;;;;17.08;10.00;;;;;;;20.07;94.66;96036.25;5038113;28;20225;-73
2022/07/25 05:14:39;;;;;;;30.80;10.10;;;;;;;20.12;94.90;96037.16;5038347;28;20204;-72
2022/07/25 05:17:05;;;;;;;17.35;10.60;;;;;;;20.03;97.09;96035.13;5038930;28;20209;-72
2022/07/25 05:19:32;;;;;;;21.60;10.50;;;;;;;20.12;97.14;96034.47;5039140;28;20201;-73
2022/07/25 05:22:01;;;;;;;19.58;10.77;;;;;;;20.40;96.08;96029.94;5037878;28;21432;-73
2022/07/25 05:24:27;;;;;;;18.98;11.25;;;;;;;20.39;95.92;96030.13;5037893;28;20658;-72
2022/07/25 05:26:54;;;;;;;23.00;12.23;;;;;;;20.51;93.18;96038.94;5036158;28;20887;-73
2022/07/25 05:29:20;;;;;;;24.33;11.82;;;;;;;20.58;92.50;96028.84;5038132;28;20217;-72
2022/07/25 05:31:46;;;;;;;25.17;11.88;;;;;;;20.62;91.84;96030.00;5038148;28;20221;-72
2022/07/25 05:34:13;;;;;;;19.58;11.77;;;;;;;20.74;91.35;96022.72;5037435;28;20674;-72
2022/07/25 05:36:40;;;;;;;20.73;11.80;;;;;;;20.86;91.01;96027.75;5038108;28;20205;-73
2022/07/25 05:39:07;;;;;;;25.75;13.15;;;;;;;21.22;90.08;96023.69;5038361;28;20216;-73
2022/07/25 05:41:34;;;;;;;25.50;13.40;;;;;;;21.21;88.80;96025.56;5037917;28;20244;-72
2022/07/25 05:44:01;;;;;;;26.05;12.60;;;;;;;21.26;87.88;96027.53;5037670;28;20201;-73
2022/07/25 05:46:27;;;;;;;21.80;12.40;;;;;;;21.21;88.60;96030.94;5037321;28;20201;-73
2022/07/25 05:48:53;;;;;;;22.08;11.93;;;;;;;21.30;87.93;96021.41;5037905;28;20221;-73
2022/07/25 05:51:20;;;;;;;22.48;11.98;;;;;;;21.51;85.85;96020.63;5038535;28;20221;-73
2022/07/25 05:53:46;;;;;;;25.13;11.98;;;;;;;21.35;85.15;96018.00;5037229;28;20216;-73
2022/07/25 05:56:14;;;;;;;21.27;12.40;;;;;;;21.61;84.19;96021.59;5037658;28;20209;-73
2022/07/25 05:58:41;;;;;;;21.98;12.00;;;;;;;21.80;83.48;96024.75;5038467;28;20205;-73
2022/07/25 06:01:08;;;;;;;20.45;12.00;;;;;;;21.89;83.49;96012.50;5037735;28;20237;-73
2022/07/25 06:03:35;;;;;;;19.73;10.93;;;;;;;21.82;83.50;96020.75;5036907;28;20731;-73
2022/07/25 06:06:01;;;;;;;25.05;11.32;;;;;;;21.89;84.01;96020.56;5037576;28;20205;-73
2022/07/25 06:08:29;;;;;;;18.90;11.15;;;;;;;21.95;83.61;96027.59;5037776;28;20204;-72
2022/07/25 06:10:57;;;;;;;20.83;11.90;;;;;;;22.16;83.34;96031.06;5037380;28;20212;-72
2022/07/25 06:13:24;;;;;;;22.70;12.15;;;;;;;22.35;84.40;96013.56;5037295;28;20217;-72
2022/07/25 06:15:51;;;;;;;23.30;11.50;;;;;;;22.47;84.69;96019.56;5037575;28;20212;-72
2022/07/25 06:18:17;;;;;;;23.45;11.88;;;;;;;22.44;84.34;96022.78;5036903;28;20217;-72
2022/07/25 06:20:44;;;;;;;19.40;11.40;;;;;;;22.45;83.17;96023.56;5037592;28;20247;-72
2022/07/25 06:23:10;;;;;;;20.27;11.68;;;;;;;22.47;83.50;96014.19;5036598;28;20216;-72
2022/07/25 06:25:37;;;;;;;23.85;12.68;;;;;;;22.71;81.83;96018.94;5036972;28;20213;-72
2022/07/25 06:28:04;;;;;;;22.48;13.10;;;;;;;22.77;81.54;96022.47;5033530;28;20791;-72
2022/07/25 06:30:32;;;;;;;21.35;12.10;;;;;;;22.89;81.38;96015.88;5037290;28;20252;-72
2022/07/25 06:32:58;;;;;;;21.55;11.77;;;;;;;22.88;80.66;96018.81;5036313;28;20225;-72
2022/07/25 06:35:25;;;;;;;26.45;12.10;;;;;;;22.97;80.37;96014.56;5036881;28;20209;-72
2022/07/25 06:37:51;;;;;;;27.88;11.35;;;;;;;22.93;80.53;96014.28;5037017;28;20587;-72
2022/07/25 06:40:18;;;;;;;21.58;12.77;;;;;;;23.06;80.04;96015.75;5037547;28;20197;-72
2022/07/25 06:42:46;;;;;;;20.73;12.07;;;;;;;23.15;79.43;96011.50;5035524;28;20229;-72
2022/07/25 06:45:14;;;;;;;22.85;13.07;;;;;;;23.12;79.01;96004.75;5036431;28;20212;-72
2022/07/25 06:47:43;;;;;;;21.20;12.38;;;;;;;23.38;78.61;96012.72;5037234;28;20608;-72
2022/07/25 06:50:11;;;;;;;20.35;11.90;;;;;;;23.59;78.41;96017.09;5036667;28;20254;-72
2022/07/25 06:52:38;;;;;;;22.90;12.80;;;;;;;23.45;78.45;96021.34;5036427;28;20224;-72
2022/07/25 06:55:05;;;;;;;23.20;12.27;;;;;;;23.47;80.15;96013.84;5036658;28;20205;-72
2022/07/25 06:57:32;;;;;;;20.13;12.63;;;;;;;23.69;78.97;96009.13;5036271;28;20201;-72
2022/07/25 06:59:58;;;;;;;19.38;11.82;;;;;;;23.76;81.25;96006.97;5036549;28;20205;-72
2022/07/25 07:02:25;;;;;;;20.60;12.32;;;;;;;23.92;78.23;96001.38;5036799;28;20216;-72
2022/07/25 07:04:53;;;;;;;19.70;12.20;;;;;;;24.20;77.84;96000.13;5036412;28;20216;-72
2022/07/25 07:07:19;;;;;;;20.20;12.23;;;;;;;24.16;77.37;95999.84;5036144;28;20950;-72
2022/07/25 07:09:46;;;;;;;22.45;12.00;;;;;;;24.34;76.27;95996.63;5036893;28;20224;-72
2022/07/25 07:12:12;;;;;;;22.75;12.77;;;;;;;24.46;78.86;95994.50;5035233;28;20255;-73
2022/07/25 07:14:39;;;;;;;25.02;12.23;;;;;;;24.72;76.49;95988.84;5035413;28;20209;-73
2022/07/25 07:17:05;;;;;;;20.08;11.98;;;;;;;24.68;74.26;95995.88;5035825;28;20217;-73
2022/07/25 07:19:32;;;;;;;19.70;11.90;;;;;;;24.91;73.78;95995.31;5036504;28;20284;-73
2022/07/25 07:22:00;;;;;;;18.52;11.50;;;;;;;25.10;73.96;96003.66;5036505;28;20217;-73
2022/07/25 07:24:26;;;;;;;18.42;11.07;;;;;;;25.29;72.02;95992.84;5035848;28;20208;-73
2022/07/25 07:26:53;;;;;;;20.98;11.40;;;;;;;25.39;73.01;95992.81;5033730;28;20209;-73
2022/07/25 07:29:20;;;;;;;20.20;11.13;;;;;;;25.53;71.91;95993.81;5035848;28;20720;-72
2022/07/25 07:31:47;;;;;;;21.88;11.23;;;;;;;25.47;70.77;95991.44;5036214;28;21123;-73
2022/07/25 07:34:13;;;;;;;18.55;11.02;;;;;;;25.48;70.00;95984.94;5035855;28;20292;-73
2022/07/25 07:36:40;;;;;;;18.05;10.43;;;;;;;25.76;71.19;95984.34;5039860;28;20673;-73
2022/07/25 07:39:08;;;;;;;19.13;11.13;;;;;;;25.86;72.12;95977.81;5039605;28;20209;-73
2022/07/25 07:41:34;;;;;;;16.98;10.15;;;;;;;26.18;70.68;95988.16;5040466;28;20308;-73
2022/07/25 07:44:01;;;;;;;16.73;10.73;;;;;;;26.15;70.35;95977.91;5039988;28;20204;-73
2022/07/25 07:46:27;;;;;;;20.23;10.77;;;;;;;26.35;70.62;95975.91;5039735;28;20201;-73
2022/07/25 07:48:53;;;;;;;17.25;11.13;;;;;;;26.38;69.76;95966.44;5040360;28;20213;-73
2022/07/25 07:51:20;;;;;;;18.50;10.52;;;;;;;26.52;68.38;95973.63;5040251;28;20776;-73
2022/07/25 07:56:32;;;;;;;15.95;10.10;;;;;;;26.98;66.23;95966.78;5039261;28;20216;-73
2022/07/25 07:58:59;;;;;;;15.65;10.57;;;;;;;26.79;66.55;95965.81;5040475;28;20201;-73
2022/07/25 08:01:25;;;;;;;17.85;10.50;;;;;;;26.79;65.94;95952.31;5039339;28;20232;-74
2022/07/25 08:03:52;;;;;;;21.65;10.43;;;;;;;27.02;65.87;95962.41;5038894;28;20225;-74
2022/07/25 08:06:18;;;;;;;18.02;10.05;;;;;;;27.15;65.99;95960.63;5039651;28;20201;-74
2022/07/25 08:08:45;;;;;;;18.15;10.45;;;;;;;27.09;64.61;95956.34;5039373;28;20209;-72
2022/07/25 08:11:11;;;;;;;15.20;10.05;;;;;;;27.45;63.98;95954.88;5038996;28;20240;-71
2022/07/25 08:13:39;;;;;;;16.35;9.73;;;;;;;27.63;63.45;95950.66;5038981;28;20220;-71
2022/07/25 08:16:06;;;;;;;15.77;9.00;;;;;;;27.73;63.03;95952.09;5038613;28;20641;-71
2022/07/25 08:18:33;;;;;;;14.45;9.27;;;;;;;27.63;60.90;95964.97;5037905;28;20562;-71
2022/07/25 08:21:02;;;;;;;15.80;9.60;;;;;;;27.73;60.39;95959.44;5036542;28;20209;-71
2022/07/25 08:23:30;;;;;;;15.63;9.32;;;;;;;27.78;62.04;95965.59;5039253;28;20201;-71
2022/07/25 08:25:57;;;;;;;14.95;10.05;;;;;;;27.88;60.50;95964.66;5038402;28;20576;-71
2022/07/25 08:28:23;;;;;;;15.35;9.43;;;;;;;27.88;60.88;95956.53;5038567;28;20431;-71
2022/07/25 08:30:51;;;;;;;13.82;8.82;;;;;;;28.28;59.07;95950.59;5039146;28;20231;-71
2022/07/25 08:33:18;;;;;;;12.70;8.63;;;;;;;28.40;59.44;95957.97;5038458;28;20198;-71
2022/07/25 08:35:50;;;;;;;14.18;8.50;;;;;;;28.71;60.41;95956.38;5038879;28;20965;-71
2022/07/25 08:38:17;;;;;;;13.48;8.82;;;;;;;28.68;60.25;95959.69;5038515;28;20697;-71
2022/07/25 08:40:44;;;;;;;12.00;7.95;;;;;;;28.82;56.52;95955.16;5038416;28;20212;-71
2022/07/25 08:43:12;;;;;;;17.23;9.68;;;;;;;28.68;57.84;95954.25;5037721;28;20700;-71
2022/07/25 08:45:44;;;;;;;16.05;8.88;;;;;;;29.13;58.13;95948.06;5038656;28;20732;-71
2022/07/25 08:48:12;;;;;;;14.80;9.05;;;;;;;29.03;56.41;95946.38;5038261;28;20618;-71
2022/07/25 08:50:40;;;;;;;17.75;9.35;;;;;;;29.14;57.97;95941.56;5038013;28;20229;-72
2022/07/25 08:53:06;;;;;;;18.65;9.20;;;;;;;29.21;58.38;95940.06;5037737;28;20266;-72
2022/07/25 08:55:33;;;;;;;14.43;9.32;;;;;;;29.40;55.49;95938.06;5038480;28;20205;-72
2022/07/25 08:58:00;;;;;;;14.50;9.23;;;;;;;29.58;56.70;95935.28;5038786;28;20301;-72
2022/07/25 09:00:28;;;;;;;12.27;8.63;;;;;;;29.59;56.06;95936.88;5038145;28;20590;-72
2022/07/25 09:02:58;;;;;;;15.02;9.20;;;;;;;29.90;55.29;95940.59;5037537;28;20275;-72
2022/07/25 09:05:26;;;;;;;14.52;9.57;;;;;;;29.94;55.31;95940.78;5038225;28;20236;-72
2022/07/25 09:07:54;;;;;;;12.88;8.50;;;;;;;30.16;55.42;95938.94;5038434;28;20674;-72
2022/07/25 09:10:23;;;;;;;15.82;8.63;;;;;;;30.25;53.83;95928.94;5037640;28;20577;-72
2022/07/25 09:12:54;;;;;;;14.35;8.88;;;;;;;30.54;55.00;95937.53;5037507;28;20236;-72
2022/07/25 09:15:26;;;;;;;11.38;6.45;;;;;;;30.57;51.93;95926.03;5037846;28;20201;-72
2022/07/25 09:17:54;;;;;;;16.33;8.18;;;;;;;30.70;53.40;95923.22;5038093;28;20205;-72
2022/07/25 09:20:21;;;;;;;15.02;9.07;;;;;;;30.74;53.24;95916.06;5038194;28;20228;-72
2022/07/25 09:22:49;;;;;;;11.52;8.07;;;;;;;30.82;51.85;95928.09;5035229;28;20228;-72
2022/07/25 09:25:24;;;;;;;11.93;6.47;;;;;;;30.84;50.39;95924.78;5037514;28;20448;-71
2022/07/25 09:27:50;;;;;;;13.93;7.78;;;;;;;30.82;49.99;95914.50;5037868;28;20208;-71
2022/07/25 09:30:18;;;;;;;12.85;7.78;;;;;;;30.95;49.75;95914.47;5038497;28;20258;-71
2022/07/25 09:32:44;;;;;;;12.00;8.00;;;;;;;30.86;49.12;95906.19;5036909;28;20401;-71
2022/07/25 09:35:11;;;;;;;10.18;7.38;;;;;;;31.11;49.75;95904.75;5037580;28;20216;-71
2022/07/25 09:37:38;;;;;;;10.68;7.00;;;;;;;31.21;48.04;95905.31;5037921;28;20243;-71
2022/07/25 09:40:14;;;;;;;13.38;7.97;;;;;;;31.37;48.56;95901.03;5037623;28;20208;-71
2022/07/25 09:42:44;;;;;;;12.50;7.22;;;;;;;31.44;47.05;95908.75;5037056;28;20229;-72
2022/07/25 09:45:13;;;;;;;11.13;7.60;;;;;;;31.70;46.51;95905.03;5037740;28;20201;-71
2022/07/25 09:47:50;;;;;;;11.00;6.65;;;;;;;32.04;45.25;95905.13;5037799;28;20205;-71
2022/07/25 09:50:18;;;;;;;8.85;6.95;;;;;;;31.98;45.43;95903.66;5037227;28;20247;-71
2022/07/25 09:52:45;;;;;;;10.00;6.60;;;;;;;32.15;44.76;95908.03;5036489;28;20602;-72
2022/07/25 09:55:15;;;;;;;9.57;6.55;;;;;;;32.30;42.46;95910.25;5037247;28;20205;-71
2022/07/25 09:57:43;;;;;;;9.02;6.00;;;;;;;32.38;42.01;95905.94;5037037;28;20197;-71
2022/07/25 10:00:12;;;;;;;11.45;6.18;;;;;;;32.46;41.17;95892.31;5036736;28;20290;-71
2022/07/25 10:02:50;;;;;;;9.43;6.43;;;;;;;32.71;43.01;95887.97;5036773;28;20648;-71
2022/07/25 10:05:26;;;;;;;8.55;5.80;;;;;;;32.60;40.27;95886.69;5036804;28;20197;-71
2022/07/25 10:07:55;;;;;;;8.57;6.07;;;;;;;32.70;42.82;95878.97;5036969;28;20215;-71
2022/07/25 10:10:27;;;;;;;9.57;6.03;;;;;;;32.82;42.64;95884.56;5037716;28;20752;-72
2022/07/25 10:13:06;;;;;;;8.73;6.30;;;;;;;32.87;42.41;95881.69;5036220;28;20225;-72
2022/07/25 10:15:44;;;;;;;12.38;7.35;;;;;;;33.37;42.11;95872.53;5037096;28;20219;-72
2022/07/25 10:18:11;;;;;;;8.95;4.63;;;;;;;33.24;37.29;95886.41;5037370;28;20209;-72
2022/07/25 10:20:38;;;;;;;8.18;4.93;;;;;;;32.98;37.63;95880.19;5036097;28;20245;-71
2022/07/25 10:23:05;;;;;;;6.45;4.60;;;;;;;33.07;38.56;95883.72;5034822;28;20392;-71
2022/07/25 10:25:33;;;;;;;8.43;5.47;;;;;;;33.04;38.51;95878.94;5036374;28;20204;-72
2022/07/25 10:28:08;;;;;;;9.23;5.75;;;;;;;33.09;39.18;95873.28;5037361;28;20208;-71
2022/07/25 10:30:37;;;;;;;7.00;5.35;;;;;;;33.27;40.10;95866.63;5036943;28;20221;-71
2022/07/25 10:33:12;;;;;;;7.22;5.20;;;;;;;33.67;37.64;95874.97;5036578;28;20221;-72
2022/07/25 10:35:39;;;;;;;11.30;4.97;;;;;;;33.81;36.83;95875.53;5037434;28;20208;-72
2022/07/25 10:38:06;;;;;;;7.10;5.40;;;;;;;33.58;36.55;95876.97;5036766;28;20227;-72
2022/07/25 10:40:36;;;;;;;7.30;5.60;;;;;;;33.78;35.85;95873.44;5037368;28;20288;-72
2022/07/25 10:43:18;;;;;;;7.25;5.47;;;;;;;33.95;36.45;95875.28;5035923;28;20229;-72
2022/07/25 10:45:50;;;;;;;8.38;4.90;;;;;;;34.14;35.39;95862.75;5036683;28;20209;-73
2022/07/25 10:48:22;;;;;;;9.13;5.45;;;;;;;34.14;36.40;95866.31;5038153;28;20212;-73
2022/07/25 10:50:51;;;;;;;8.98;6.28;;;;;;;34.15;36.55;95858.91;5037126;28;20252;-73
2022/07/25 10:53:31;;;;;;;8.63;5.60;;;;;;;34.33;37.59;95860.38;5035856;28;20197;-73
2022/07/25 10:56:03;;;;;;;9.25;5.88;;;;;;;34.34;37.21;95853.75;5036884;28;20239;-73
2022/07/25 10:58:42;;;;;;;9.00;5.47;;;;;;;34.39;36.14;95850.81;5036739;28;20236;-73
2022/07/25 11:01:08;;;;;;;9.75;5.60;;;;;;;34.48;37.55;95844.16;5036441;28;20882;-73
2022/07/25 11:03:34;;;;;;;8.10;5.78;;;;;;;34.81;36.55;95844.94;5035355;28;20201;-73
2022/07/25 11:06:01;;;;;;;7.35;5.80;;;;;;;34.69;36.21;95840.25;5035829;28;20944;-73
2022/07/25 11:08:31;;;;;;;9.77;5.95;;;;;;;34.47;35.82;95836.25;5035846;28;20196;-75
2022/07/25 11:10:59;;;;;;;7.53;5.47;;;;;;;34.60;35.82;95827.78;5035965;28;20228;-75
2022/07/25 11:13:26;;;;;;;6.68;5.57;;;;;;;34.47;36.90;95839.00;5035865;28;20217;-75
2022/07/25 11:15:56;;;;;;;8.68;5.53;;;;;;;34.71;35.08;95835.25;5036490;28;20578;-75
2022/07/25 11:18:31;;;;;;;9.38;5.22;;;;;;;35.01;35.48;95833.97;5036664;28;20201;-75
2022/07/25 11:20:59;;;;;;;11.40;6.18;;;;;;;35.18;35.96;95839.22;5034574;28;20212;-75
2022/07/25 11:23:25;;;;;;;7.63;5.50;;;;;;;35.19;34.50;95832.63;5035677;28;20267;-76
2022/07/25 11:25:52;;;;;;;7.70;5.50;;;;;;;34.90;33.40;95832.75;5036491;28;20209;-75
2022/07/25 11:28:19;;;;;;;9.80;5.40;;;;;;;34.84;34.36;95819.63;5036791;28;21113;-75
2022/07/25 11:30:46;;;;;;;7.40;5.35;;;;;;;34.89;33.92;95830.34;5036286;28;20248;-73